createdAt,value
2018-02-07T00:00:34.177Z,12.80
2018-02-07T00:01:38.585Z,13.93
2018-02-07T00:02:43.540Z,12.85
2018-02-07T00:03:47.741Z,14.05
2018-02-07T00:04:51.946Z,14.05
2018-02-07T00:05:57.629Z,13.55
2018-02-07T00:07:02.206Z,12.88
2018-02-07T00:08:06.442Z,13.80
2018-02-07T00:09:10.666Z,13.00
2018-02-07T00:10:14.855Z,12.30
2018-02-07T00:11:19.102Z,13.55
2018-02-07T00:12:23.292Z,14.00
2018-02-07T00:13:27.872Z,12.20
2018-02-07T00:14:32.149Z,12.68
2018-02-07T00:15:36.355Z,12.88
2018-02-07T00:16:40.639Z,11.32
2018-02-07T00:17:45.045Z,13.77
2018-02-07T00:18:50.054Z,11.68
2018-02-07T00:19:54.295Z,13.43
2018-02-07T00:20:58.899Z,13.20
2018-02-07T00:22:03.140Z,12.25
2018-02-07T00:23:07.343Z,13.62
2018-02-07T00:24:11.545Z,13.10
2018-02-07T00:25:16.022Z,12.88
2018-02-07T00:26:20.566Z,12.95
2018-02-07T00:27:25.210Z,12.88
2018-02-07T00:28:29.420Z,12.82
2018-02-07T00:29:33.623Z,13.27
2018-02-07T00:30:37.876Z,12.95
2018-02-07T00:31:42.827Z,15.35
2018-02-07T00:32:47.167Z,12.95
2018-02-07T00:33:51.487Z,13.62
2018-02-07T00:34:55.778Z,13.80
2018-02-07T00:36:00.134Z,13.62
2018-02-07T00:37:04.353Z,13.85
2018-02-07T00:38:08.565Z,13.57
2018-02-07T00:39:13.156Z,15.07
2018-02-07T00:40:17.847Z,13.25
2018-02-07T00:41:22.860Z,12.52
2018-02-07T00:42:27.917Z,13.68
2018-02-07T00:43:32.117Z,15.05
2018-02-07T00:44:37.105Z,12.57
2018-02-07T00:45:41.371Z,14.27
2018-02-07T00:46:45.958Z,13.65
2018-02-07T00:47:51.734Z,13.52
2018-02-07T00:48:56.142Z,14.10
2018-02-07T00:50:01.175Z,14.15
2018-02-07T00:51:06.130Z,14.43
2018-02-07T00:52:10.352Z,13.80
2018-02-07T00:53:14.550Z,15.05
2018-02-07T00:54:20.270Z,13.38
2018-02-07T00:55:24.947Z,13.20
2018-02-07T00:56:29.145Z,13.75
2018-02-07T00:57:33.346Z,15.18
2018-02-07T00:58:37.539Z,12.95
2018-02-07T00:59:41.737Z,13.82
2018-02-07T01:00:46.757Z,14.50
2018-02-07T01:01:51.034Z,13.90
2018-02-07T01:02:55.292Z,13.82
2018-02-07T01:04:00.247Z,14.68
2018-02-07T01:05:04.437Z,13.75
2018-02-07T01:06:08.674Z,14.45
2018-02-07T01:07:12.912Z,13.45
2018-02-07T01:08:17.311Z,14.75
2018-02-07T01:09:21.562Z,13.85
2018-02-07T01:10:25.920Z,14.70
2018-02-07T01:11:30.211Z,14.70
2018-02-07T01:12:34.410Z,14.52
2018-02-07T01:13:39.385Z,15.80
2018-02-07T01:14:43.572Z,15.95
2018-02-07T01:15:47.960Z,13.45
2018-02-07T01:16:53.008Z,14.90
2018-02-07T01:17:57.605Z,14.00
2018-02-07T01:19:02.569Z,16.30
2018-02-07T01:20:06.773Z,14.70
2018-02-07T01:21:11.002Z,13.80
2018-02-07T01:22:15.428Z,15.10
2018-02-07T01:23:20.197Z,13.70
2018-02-07T01:24:24.472Z,14.50
2018-02-07T01:25:28.701Z,13.23
2018-02-07T01:26:32.921Z,15.30
2018-02-07T01:27:38.026Z,15.80
2018-02-07T01:28:42.207Z,15.60
2018-02-07T01:29:47.294Z,16.02
2018-02-07T01:30:52.315Z,16.17
2018-02-07T01:31:57.301Z,14.80
2018-02-07T01:33:01.578Z,14.25
2018-02-07T01:34:06.543Z,15.30
2018-02-07T01:35:10.746Z,16.60
2018-02-07T01:36:15.023Z,14.65
2018-02-07T01:37:19.457Z,15.65
2018-02-07T01:38:24.112Z,15.40
2018-02-07T01:39:28.359Z,14.73
2018-02-07T01:40:32.623Z,15.15
2018-02-07T01:41:36.834Z,14.00
2018-02-07T01:42:41.058Z,14.87
2018-02-07T01:43:45.853Z,15.90
2018-02-07T01:44:50.325Z,16.50
2018-02-07T01:45:54.584Z,14.60
2018-02-07T01:46:58.835Z,15.20
2018-02-07T01:48:04.530Z,15.38
2018-02-07T01:49:08.799Z,15.70
2018-02-07T01:50:12.997Z,16.10
2018-02-07T01:51:17.704Z,15.52
2018-02-07T01:52:21.928Z,16.20
2018-02-07T01:53:26.149Z,16.70
2018-02-07T01:54:30.387Z,17.65
2018-02-07T01:55:35.335Z,16.62
2018-02-07T01:56:39.541Z,15.43
2018-02-07T01:57:43.730Z,16.98
2018-02-07T01:58:48.159Z,15.00
2018-02-07T01:59:52.905Z,17.27
2018-02-07T02:00:57.235Z,15.38
2018-02-07T02:02:01.440Z,16.42
2018-02-07T02:03:05.674Z,17.35
2018-02-07T02:04:09.943Z,16.85
2018-02-07T02:05:14.153Z,18.10
2018-02-07T02:06:18.623Z,17.33
2018-02-07T02:07:22.899Z,16.83
2018-02-07T02:08:27.103Z,16.12
2018-02-07T02:09:31.325Z,17.25
2018-02-07T02:10:35.572Z,16.30
2018-02-07T02:11:39.792Z,15.93
2018-02-07T02:12:43.971Z,18.37
2018-02-07T02:13:48.361Z,17.60
2018-02-07T02:14:52.588Z,18.20
2018-02-07T02:15:57.784Z,16.92
2018-02-07T02:17:01.994Z,17.33
2018-02-07T02:18:06.976Z,17.02
2018-02-07T02:19:11.197Z,16.55
2018-02-07T02:20:15.482Z,17.23
2018-02-07T02:21:19.872Z,17.23
2018-02-07T02:22:24.099Z,17.35
2018-02-07T02:23:28.399Z,17.30
2018-02-07T02:24:32.583Z,15.73
2018-02-07T02:25:36.778Z,17.40
2018-02-07T02:26:41.021Z,17.00
2018-02-07T02:27:46.041Z,17.37
2018-02-07T02:28:50.473Z,18.95
2018-02-07T02:29:54.761Z,18.20
2018-02-07T02:30:59.730Z,17.52
2018-02-07T02:32:03.989Z,18.25
2018-02-07T02:33:08.190Z,18.58
2018-02-07T02:34:12.409Z,18.80
2018-02-07T02:35:18.738Z,17.17
2018-02-07T02:36:40.572Z,18.80
2018-02-07T02:37:44.941Z,18.92
2018-02-07T02:38:49.313Z,17.77
2018-02-07T02:39:53.570Z,17.23
2018-02-07T02:40:57.809Z,18.98
2018-02-07T02:42:02.060Z,18.87
2018-02-07T02:43:06.269Z,17.23
2018-02-07T02:44:10.490Z,18.33
2018-02-07T02:45:14.784Z,19.33
2018-02-07T02:46:19.143Z,18.77
2018-02-07T02:47:23.391Z,17.50
2018-02-07T02:48:27.625Z,17.48
2018-02-07T02:49:31.841Z,17.60
2018-02-07T02:50:36.079Z,17.33
2018-02-07T02:51:40.277Z,18.20
2018-02-07T02:52:44.471Z,18.23
2018-02-07T02:53:49.494Z,18.62
2018-02-07T02:54:53.886Z,18.37
2018-02-07T02:55:58.120Z,17.25
2018-02-07T02:57:02.308Z,19.40
2018-02-07T02:58:06.543Z,17.87
2018-02-07T02:59:10.736Z,18.40
2018-02-07T03:00:15.135Z,18.80
2018-02-07T03:01:20.291Z,18.85
2018-02-07T03:02:24.588Z,18.95
2018-02-07T03:03:28.798Z,18.58
2018-02-07T03:04:32.998Z,20.12
2018-02-07T03:05:37.256Z,18.70
2018-02-07T03:06:42.958Z,18.87
2018-02-07T03:07:47.571Z,18.35
2018-02-07T03:08:52.347Z,19.25
2018-02-07T03:09:57.350Z,19.20
2018-02-07T03:11:02.047Z,19.20
2018-02-07T03:12:06.235Z,18.70
2018-02-07T03:13:11.305Z,18.17
2018-02-07T03:14:15.909Z,19.70
2018-02-07T03:15:20.600Z,17.67
2018-02-07T03:16:26.300Z,19.87
2018-02-07T03:17:30.535Z,19.85
2018-02-07T03:18:34.754Z,18.95
2018-02-07T03:19:38.942Z,17.40
2018-02-07T03:20:43.133Z,19.90
2018-02-07T03:21:47.724Z,19.90
2018-02-07T03:22:52.402Z,19.40
2018-02-07T03:23:56.739Z,19.08
2018-02-07T03:25:00.959Z,19.30
2018-02-07T03:26:05.926Z,22.00
2018-02-07T03:27:10.149Z,19.37
2018-02-07T03:28:14.431Z,21.85
2018-02-07T03:29:18.803Z,21.55
2018-02-07T03:30:23.069Z,20.10
2018-02-07T03:31:27.562Z,19.60
2018-02-07T03:32:32.528Z,19.00
2018-02-07T03:33:36.778Z,20.42
2018-02-07T03:34:41.023Z,19.25
2018-02-07T03:35:45.747Z,22.00
2018-02-07T03:36:49.987Z,20.42
2018-02-07T03:37:54.189Z,20.23
2018-02-07T03:38:58.408Z,19.23
2018-02-07T03:40:02.614Z,18.27
2018-02-07T03:41:07.192Z,19.12
2018-02-07T03:42:12.158Z,18.27
2018-02-07T03:43:16.666Z,19.55
2018-02-07T03:44:21.030Z,19.50
2018-02-07T03:45:25.498Z,18.95
2018-02-07T03:46:29.749Z,19.95
2018-02-07T03:47:33.931Z,17.95
2018-02-07T03:48:38.110Z,18.90
2018-02-07T03:49:42.317Z,22.23
2018-02-07T03:50:47.871Z,19.95
2018-02-07T03:51:52.427Z,20.75
2018-02-07T03:52:56.704Z,20.27
2018-02-07T03:54:00.914Z,21.15
2018-02-07T03:55:05.114Z,21.30
2018-02-07T03:56:10.060Z,20.15
2018-02-07T03:57:14.317Z,20.30
2018-02-07T03:58:19.048Z,20.95
2018-02-07T03:59:23.313Z,20.55
2018-02-07T04:00:27.889Z,20.77
2018-02-07T04:01:32.852Z,20.67
2018-02-07T04:02:37.059Z,19.73
2018-02-07T04:03:41.290Z,21.50
2018-02-07T04:04:45.972Z,20.98
2018-02-07T04:05:51.744Z,21.17
2018-02-07T04:06:55.973Z,20.88
2018-02-07T04:08:00.355Z,19.90
2018-02-07T04:09:04.934Z,18.87
2018-02-07T04:10:09.162Z,20.58
2018-02-07T04:11:14.149Z,20.50
2018-02-07T04:12:18.460Z,19.52
2018-02-07T04:13:23.125Z,20.92
2018-02-07T04:14:27.407Z,20.67
2018-02-07T04:15:31.604Z,20.05
2018-02-07T04:16:35.808Z,20.70
2018-02-07T04:17:40.879Z,21.23
2018-02-07T04:18:45.292Z,22.80
2018-02-07T04:19:50.374Z,21.45
2018-02-07T04:20:54.625Z,20.92
2018-02-07T04:21:58.851Z,20.55
2018-02-07T04:23:03.062Z,21.02
2018-02-07T04:24:07.256Z,20.12
2018-02-07T04:25:11.494Z,21.62
2018-02-07T04:26:16.545Z,20.27
2018-02-07T04:27:20.938Z,19.55
2018-02-07T04:28:25.936Z,20.20
2018-02-07T04:29:30.199Z,20.48
2018-02-07T04:30:34.406Z,20.58
2018-02-07T04:31:39.378Z,20.33
2018-02-07T04:32:43.592Z,20.70
2018-02-07T04:33:48.072Z,20.30
2018-02-07T04:34:52.677Z,19.50
2018-02-07T04:35:57.660Z,19.10
2018-02-07T04:37:01.852Z,19.70
2018-02-07T04:38:06.052Z,19.62
2018-02-07T04:39:10.687Z,19.37
2018-02-07T04:40:14.960Z,19.40
2018-02-07T04:41:19.755Z,20.88
2018-02-07T04:42:24.001Z,21.45
2018-02-07T04:43:28.303Z,19.25
2018-02-07T04:44:33.333Z,19.95
2018-02-07T04:45:39.100Z,20.75
2018-02-07T04:46:43.289Z,19.35
2018-02-07T04:47:47.536Z,20.95
2018-02-07T04:48:51.845Z,19.17
2018-02-07T04:49:56.081Z,20.80
2018-02-07T04:51:00.687Z,20.27
2018-02-07T04:52:04.891Z,19.80
2018-02-07T04:53:09.139Z,21.67
2018-02-07T04:54:14.902Z,19.12
2018-02-07T04:55:19.562Z,20.70
2018-02-07T04:56:24.652Z,21.73
2018-02-07T04:57:28.872Z,20.10
2018-02-07T04:58:33.876Z,20.83
2018-02-07T04:59:38.095Z,21.70
2018-02-07T05:00:42.347Z,20.85
2018-02-07T05:01:46.642Z,20.60
2018-02-07T05:02:50.966Z,20.98
2018-02-07T05:03:55.243Z,20.77
2018-02-07T05:04:59.520Z,20.17
2018-02-07T05:06:03.818Z,21.00
2018-02-07T05:07:08.009Z,21.45
2018-02-07T05:08:13.035Z,20.75
2018-02-07T05:09:18.655Z,20.73
2018-02-07T05:10:22.964Z,21.05
2018-02-07T05:11:28.019Z,21.62
2018-02-07T05:12:32.996Z,23.05
2018-02-07T05:13:37.224Z,23.02
2018-02-07T05:14:41.428Z,20.90
2018-02-07T05:15:45.779Z,21.35
2018-02-07T05:16:51.020Z,20.05
2018-02-07T05:17:56.060Z,20.83
2018-02-07T05:19:00.322Z,20.37
2018-02-07T05:20:04.787Z,20.15
2018-02-07T05:21:09.736Z,20.35
2018-02-07T05:22:13.938Z,19.70
2018-02-07T05:23:18.884Z,19.20
2018-02-07T05:24:23.342Z,20.92
2018-02-07T05:25:27.615Z,20.92
2018-02-07T05:26:31.832Z,20.88
2018-02-07T05:27:36.027Z,20.48
2018-02-07T05:28:40.212Z,21.00
2018-02-07T05:29:45.277Z,18.98
2018-02-07T05:30:49.616Z,18.37
2018-02-07T05:31:54.294Z,20.55
2018-02-07T05:32:58.527Z,19.27
2018-02-07T05:34:02.720Z,19.58
2018-02-07T05:35:06.962Z,18.33
2018-02-07T05:36:11.147Z,21.40
2018-02-07T05:37:15.498Z,18.92
2018-02-07T05:38:19.781Z,20.40
2018-02-07T05:39:24.197Z,19.75
2018-02-07T05:40:28.473Z,21.95
2018-02-07T05:41:32.688Z,20.45
2018-02-07T05:42:37.646Z,21.40
2018-02-07T05:43:41.867Z,19.33
2018-02-07T05:44:46.637Z,19.90
2018-02-07T05:45:51.147Z,19.48
2018-02-07T05:46:55.347Z,21.55
2018-02-07T05:47:59.540Z,22.33
2018-02-07T05:49:03.749Z,22.10
2018-02-07T05:50:07.967Z,19.10
2018-02-07T05:51:12.191Z,22.00
2018-02-07T05:52:16.651Z,21.15
2018-02-07T05:53:20.992Z,20.92
2018-02-07T05:54:25.299Z,20.12
2018-02-07T05:55:29.630Z,22.45
2018-02-07T05:56:33.926Z,20.02
2018-02-07T05:57:38.116Z,21.35
2018-02-07T05:58:42.319Z,20.85
2018-02-07T05:59:47.597Z,22.27
2018-02-07T06:00:52.994Z,20.58
2018-02-07T06:01:57.271Z,20.30
2018-02-07T06:03:02.983Z,20.90
2018-02-07T06:04:07.180Z,20.17
2018-02-07T06:05:11.385Z,20.65
2018-02-07T06:06:16.387Z,24.48
2018-02-07T06:07:21.779Z,25.62
2018-02-07T06:08:26.138Z,21.17
2018-02-07T06:09:31.110Z,25.60
2018-02-07T06:10:35.322Z,25.42
2018-02-07T06:11:39.568Z,22.23
2018-02-07T06:12:43.798Z,22.20
2018-02-07T06:13:48.442Z,21.48
2018-02-07T06:14:52.736Z,21.45
2018-02-07T06:15:57.737Z,19.80
2018-02-07T06:17:01.980Z,20.27
2018-02-07T06:18:06.964Z,20.12
2018-02-07T06:19:11.170Z,19.12
2018-02-07T06:20:15.484Z,18.48
2018-02-07T06:21:19.895Z,20.60
2018-02-07T06:22:24.181Z,20.70
2018-02-07T06:23:28.371Z,20.12
2018-02-07T06:24:33.311Z,17.95
2018-02-07T06:25:37.547Z,21.20
2018-02-07T06:26:41.735Z,19.55
2018-02-07T06:27:46.014Z,18.98
2018-02-07T06:28:50.296Z,19.90
2018-02-07T06:29:54.568Z,19.92
2018-02-07T06:30:58.782Z,21.48
2018-02-07T06:32:02.988Z,18.02
2018-02-07T06:33:07.260Z,20.75
2018-02-07T06:34:11.475Z,19.92
2018-02-07T06:35:15.732Z,18.15
2018-02-07T06:36:20.817Z,19.70
2018-02-07T06:37:25.228Z,21.08
2018-02-07T06:38:29.483Z,20.58
2018-02-07T06:39:33.692Z,25.27
2018-02-07T06:40:37.897Z,23.10
2018-02-07T06:41:42.176Z,21.25
2018-02-07T06:42:46.573Z,22.40
2018-02-07T06:43:50.837Z,22.83
2018-02-07T06:44:55.308Z,21.62
2018-02-07T06:45:59.556Z,21.48
2018-02-07T06:47:04.563Z,21.25
2018-02-07T06:48:08.752Z,23.70
2018-02-07T06:49:12.971Z,19.98
2018-02-07T06:50:17.415Z,22.85
2018-02-07T06:51:21.908Z,22.20
2018-02-07T06:52:26.503Z,21.70
2018-02-07T06:53:30.672Z,22.05
2018-02-07T06:54:35.644Z,20.77
2018-02-07T06:55:39.827Z,22.13
2018-02-07T06:56:44.341Z,19.35
2018-02-07T06:57:48.888Z,22.65
2018-02-07T06:58:53.461Z,20.37
2018-02-07T06:59:59.008Z,20.77
2018-02-07T07:01:04.002Z,20.98
2018-02-07T07:02:08.211Z,20.15
2018-02-07T07:03:12.400Z,21.67
2018-02-07T07:04:17.246Z,19.45
2018-02-07T07:05:21.535Z,21.25
2018-02-07T07:06:26.583Z,19.83
2018-02-07T07:07:30.799Z,19.50
2018-02-07T07:08:34.983Z,19.73
2018-02-07T07:09:39.228Z,19.55
2018-02-07T07:10:43.512Z,21.20
2018-02-07T07:11:47.749Z,20.37
2018-02-07T07:12:52.135Z,19.02
2018-02-07T07:13:56.368Z,19.15
2018-02-07T07:15:00.560Z,19.60
2018-02-07T07:16:04.818Z,19.62
2018-02-07T07:17:09.776Z,19.00
2018-02-07T07:18:14.006Z,18.60
2018-02-07T07:19:18.516Z,20.90
2018-02-07T07:20:22.923Z,19.20
2018-02-07T07:21:27.171Z,19.65
2018-02-07T07:22:31.387Z,18.95
2018-02-07T07:23:35.570Z,18.98
2018-02-07T07:24:39.812Z,16.70
2018-02-07T07:25:44.012Z,17.92
2018-02-07T07:26:48.907Z,17.58
2018-02-07T07:27:53.180Z,17.62
2018-02-07T07:28:58.352Z,21.40
2018-02-07T07:30:02.554Z,17.20
2018-02-07T07:31:06.742Z,19.52
2018-02-07T07:32:11.798Z,21.02
2018-02-07T07:33:16.183Z,17.35
2018-02-07T07:34:20.879Z,20.37
2018-02-07T07:35:26.840Z,16.70
2018-02-07T07:36:31.029Z,15.75
2018-02-07T07:37:35.288Z,17.37
2018-02-07T07:38:40.230Z,18.10
2018-02-07T07:39:44.492Z,16.60
2018-02-07T07:40:49.958Z,18.37
2018-02-07T07:41:54.940Z,19.73
2018-02-07T07:42:59.223Z,16.80
2018-02-07T07:44:03.463Z,18.12
2018-02-07T07:45:07.671Z,17.40
2018-02-07T07:46:11.919Z,17.20
2018-02-07T07:47:16.359Z,27.58
2018-02-07T07:48:20.860Z,20.67
2018-02-07T07:49:25.443Z,19.02
2018-02-07T07:50:29.698Z,22.15
2018-02-07T07:51:34.688Z,31.27
2018-02-07T07:52:38.934Z,24.65
2018-02-07T07:53:43.950Z,27.67
2018-02-07T07:54:48.529Z,37.28
2018-02-07T07:55:52.788Z,33.00
2018-02-07T07:56:57.783Z,25.15
2018-02-07T07:58:02.348Z,26.33
2018-02-07T07:59:07.308Z,18.55
2018-02-07T08:00:11.497Z,33.10
2018-02-07T08:01:17.238Z,22.70
2018-02-07T08:02:21.523Z,19.12
2018-02-07T08:03:25.764Z,17.30
2018-02-07T08:04:30.742Z,16.52
2018-02-07T08:05:34.926Z,16.65
2018-02-07T08:06:39.131Z,17.27
2018-02-07T08:07:43.399Z,15.85
2018-02-07T08:08:47.654Z,18.95
2018-02-07T08:09:51.976Z,18.00
2018-02-07T08:10:56.748Z,16.30
2018-02-07T08:12:00.963Z,32.97
2018-02-07T08:13:05.197Z,19.55
2018-02-07T08:14:10.157Z,19.45
2018-02-07T08:15:14.416Z,17.10
2018-02-07T08:16:19.072Z,18.00
2018-02-07T08:17:23.675Z,17.30
2018-02-07T08:18:27.927Z,17.33
2018-02-07T08:19:32.172Z,16.05
2018-02-07T08:20:36.355Z,17.00
2018-02-07T08:21:40.645Z,17.25
2018-02-07T08:22:44.967Z,15.57
2018-02-07T08:23:49.298Z,15.13
2018-02-07T08:24:53.752Z,18.02
2018-02-07T08:25:58.051Z,18.08
2018-02-07T08:27:02.264Z,16.15
2018-02-07T08:28:06.531Z,15.73
2018-02-07T08:29:10.715Z,18.08
2018-02-07T08:30:15.748Z,16.30
2018-02-07T08:31:20.848Z,15.98
2018-02-07T08:32:26.183Z,14.95
2018-02-07T08:33:30.392Z,15.60
2018-02-07T08:34:34.615Z,16.48
2018-02-07T08:35:38.829Z,15.27
2018-02-07T08:36:43.041Z,16.65
2018-02-07T08:37:49.840Z,15.20
2018-02-07T08:38:56.944Z,15.18
2018-02-07T08:40:02.103Z,15.50
2018-02-07T08:41:06.319Z,15.48
2018-02-07T08:42:10.514Z,14.95
2018-02-07T08:43:14.884Z,14.70
2018-02-07T08:44:19.908Z,14.80
2018-02-07T08:45:24.329Z,17.30
2018-02-07T08:46:28.596Z,15.18
2018-02-07T08:47:32.799Z,14.05
2018-02-07T08:48:37.011Z,15.82
2018-02-07T08:49:41.219Z,14.10
2018-02-07T08:50:46.148Z,15.48
2018-02-07T08:51:50.376Z,14.50
2018-02-07T08:52:56.135Z,14.90
2018-02-07T08:54:00.636Z,15.40
2018-02-07T08:55:07.936Z,17.00
2018-02-07T08:56:12.963Z,14.32
2018-02-07T08:57:17.921Z,13.73
2018-02-07T08:58:22.357Z,14.57
2018-02-07T08:59:26.619Z,15.30
2018-02-07T09:00:31.575Z,15.63
2018-02-07T09:01:35.812Z,15.32
2018-02-07T09:02:40.004Z,14.20
2018-02-07T09:03:44.220Z,14.25
2018-02-07T09:04:48.508Z,14.75
2018-02-07T09:05:53.088Z,16.08
2018-02-07T09:06:57.697Z,14.85
2018-02-07T09:08:01.989Z,14.75
2018-02-07T09:10:17.329Z,14.25
2018-02-07T09:11:22.595Z,15.18
2018-02-07T09:12:26.886Z,17.65
2018-02-07T09:13:31.877Z,14.50
2018-02-07T09:14:36.074Z,16.35
2018-02-07T09:15:40.288Z,15.48
2018-02-07T09:16:44.861Z,14.57
2018-02-07T09:17:49.181Z,16.25
2018-02-07T09:18:53.444Z,15.65
2018-02-07T09:19:57.667Z,16.17
2018-02-07T09:21:01.898Z,16.27
2018-02-07T09:22:06.136Z,15.73
2018-02-07T09:23:10.389Z,14.27
2018-02-07T09:24:14.661Z,14.35
2018-02-07T09:25:18.931Z,13.80
2018-02-07T09:26:23.175Z,15.32
2018-02-07T09:27:27.396Z,16.80
2018-02-07T09:28:31.643Z,13.38
2018-02-07T09:29:35.848Z,14.68
2018-02-07T09:30:40.044Z,24.17
2018-02-07T09:31:44.281Z,18.05
2018-02-07T09:32:48.585Z,17.90
2018-02-07T09:33:53.326Z,22.15
2018-02-07T09:34:58.299Z,30.42
2018-02-07T09:36:02.555Z,14.30
2018-02-07T09:37:06.785Z,25.00
2018-02-07T09:38:11.014Z,20.65
2018-02-07T09:39:16.122Z,18.95
2018-02-07T09:40:20.390Z,19.15
2018-02-07T09:41:24.873Z,19.40
2018-02-07T09:42:29.836Z,20.77
2018-02-07T09:43:34.052Z,15.48
2018-02-07T09:44:38.274Z,15.40
2018-02-07T09:45:42.495Z,16.05
2018-02-07T09:46:46.811Z,14.70
2018-02-07T09:47:51.060Z,14.70
2018-02-07T09:48:55.303Z,18.52
2018-02-07T09:49:59.557Z,19.40
2018-02-07T09:51:03.767Z,18.05
2018-02-07T09:52:08.034Z,18.62
2018-02-07T09:53:12.251Z,16.70
2018-02-07T09:54:16.812Z,17.65
2018-02-07T09:55:21.312Z,14.25
2018-02-07T09:56:26.559Z,14.68
2018-02-07T09:57:30.771Z,14.65
2018-02-07T09:58:34.989Z,14.85
2018-02-07T09:59:39.199Z,16.85
2018-02-07T10:00:43.497Z,15.25
2018-02-07T10:01:47.789Z,17.45
2018-02-07T10:02:52.032Z,15.20
2018-02-07T10:03:56.272Z,22.58
2018-02-07T10:05:01.279Z,26.65
2018-02-07T10:06:05.520Z,19.23
2018-02-07T10:07:09.708Z,15.48
2018-02-07T10:08:14.954Z,15.20
2018-02-07T10:09:19.771Z,13.75
2018-02-07T10:10:24.927Z,17.30
2018-02-07T10:11:29.147Z,14.90
2018-02-07T10:12:33.357Z,13.38
2018-02-07T10:13:37.648Z,15.45
2018-02-07T10:14:42.651Z,21.60
2018-02-07T10:15:46.912Z,14.75
2018-02-07T10:16:51.393Z,15.00
2018-02-07T10:17:55.620Z,12.93
2018-02-07T10:19:00.601Z,21.90
2018-02-07T10:20:04.899Z,15.77
2018-02-07T10:21:09.103Z,22.73
2018-02-07T10:22:13.284Z,14.93
2018-02-07T10:23:18.362Z,13.75
2018-02-07T10:24:23.545Z,15.05
2018-02-07T10:25:27.795Z,14.18
2018-02-07T10:26:32.003Z,14.27
2018-02-07T10:27:36.211Z,14.68
2018-02-07T10:28:40.428Z,13.98
2018-02-07T10:29:44.667Z,13.02
2018-02-07T10:30:49.403Z,13.82
2018-02-07T10:31:53.651Z,12.95
2018-02-07T10:32:57.886Z,14.13
2018-02-07T10:34:02.146Z,11.80
2018-02-07T10:35:07.137Z,13.20
2018-02-07T10:36:11.350Z,12.93
2018-02-07T10:37:15.595Z,12.77
2018-02-07T10:38:20.610Z,13.75
2018-02-07T10:39:24.963Z,12.63
2018-02-07T10:40:29.198Z,12.15
2018-02-07T10:41:33.444Z,11.90
2018-02-07T10:42:37.658Z,17.12
2018-02-07T10:43:41.863Z,13.93
2018-02-07T10:44:46.322Z,28.40
2018-02-07T10:45:50.589Z,11.88
2018-02-07T10:46:55.584Z,11.20
2018-02-07T10:47:59.881Z,16.12
2018-02-07T10:49:04.180Z,20.65
2018-02-07T10:50:08.372Z,12.57
2018-02-07T10:51:13.347Z,14.50
2018-02-07T10:52:17.743Z,14.43
2018-02-07T10:53:22.019Z,11.38
2018-02-07T10:54:27.268Z,11.85
2018-02-07T10:55:32.304Z,11.75
2018-02-07T10:56:37.284Z,12.52
2018-02-07T10:57:41.454Z,18.20
2018-02-07T10:58:45.756Z,18.23
2018-02-07T10:59:50.067Z,13.62
2018-02-07T11:00:55.666Z,14.68
2018-02-07T11:01:59.871Z,15.68
2018-02-07T11:03:04.128Z,14.87
2018-02-07T11:04:09.090Z,11.55
2018-02-07T11:05:13.306Z,10.88
2018-02-07T11:06:17.815Z,11.15
2018-02-07T11:07:22.121Z,11.88
2018-02-07T11:08:26.402Z,12.50
2018-02-07T11:09:31.357Z,10.73
2018-02-07T11:10:35.624Z,12.88
2018-02-07T11:11:39.833Z,12.65
2018-02-07T11:12:44.031Z,11.23
2018-02-07T11:13:49.224Z,11.10
2018-02-07T11:14:53.489Z,11.38
2018-02-07T11:15:57.739Z,13.60
2018-02-07T11:17:02.692Z,14.57
2018-02-07T11:18:06.936Z,11.60
2018-02-07T11:19:11.123Z,11.70
2018-02-07T11:20:15.560Z,11.20
2018-02-07T11:21:21.118Z,12.68
2018-02-07T11:22:25.629Z,11.20
2018-02-07T11:23:29.812Z,11.43
2018-02-07T11:24:33.987Z,12.00
2018-02-07T11:25:38.931Z,11.50
2018-02-07T11:26:43.170Z,11.07
2018-02-07T11:27:47.500Z,11.70
2018-02-07T11:28:51.754Z,12.75
2018-02-07T11:29:55.945Z,11.07
2018-02-07T11:31:00.904Z,12.37
2018-02-07T11:32:05.149Z,12.45
2018-02-07T11:33:09.347Z,12.27
2018-02-07T11:34:13.525Z,11.55
2018-02-07T11:35:17.884Z,11.60
2018-02-07T11:36:22.943Z,12.95
2018-02-07T11:37:27.255Z,12.55
2018-02-07T11:38:31.508Z,12.35
2018-02-07T11:39:35.685Z,12.40
2018-02-07T11:40:40.632Z,12.30
2018-02-07T11:41:45.189Z,12.30
2018-02-07T11:42:49.423Z,11.65
2018-02-07T11:43:53.737Z,11.85
2018-02-07T11:44:57.972Z,12.20
2018-02-07T11:46:02.920Z,12.32
2018-02-07T11:47:07.137Z,12.18
2018-02-07T11:48:11.721Z,11.27
2018-02-07T11:49:17.001Z,12.40
2018-02-07T11:50:21.273Z,11.27
2018-02-07T11:51:26.267Z,11.45
2018-02-07T11:52:30.470Z,12.32
2018-02-07T11:53:34.756Z,13.85
2018-02-07T11:54:38.949Z,12.80
2018-02-07T11:55:44.084Z,11.88
2018-02-07T11:56:48.476Z,12.93
2018-02-07T11:57:53.540Z,12.65
2018-02-07T11:58:58.157Z,12.27
2018-02-07T12:00:02.381Z,11.90
2018-02-07T12:01:06.618Z,12.70
2018-02-07T12:02:10.809Z,12.75
2018-02-07T12:03:15.118Z,13.43
2018-02-07T12:04:19.460Z,11.93
2018-02-07T12:05:23.743Z,12.55
2018-02-07T12:06:27.935Z,12.52
2018-02-07T12:07:32.117Z,12.93
2018-02-07T12:08:36.324Z,13.60
2018-02-07T12:09:40.554Z,11.12
2018-02-07T12:10:46.155Z,12.40
2018-02-07T12:11:51.210Z,12.30
2018-02-07T12:12:55.865Z,11.65
2018-02-07T12:14:00.084Z,11.73
2018-02-07T12:15:04.318Z,12.25
2018-02-07T12:16:08.555Z,11.68
2018-02-07T12:17:12.754Z,13.13
2018-02-07T12:18:17.138Z,12.30
2018-02-07T12:19:21.373Z,12.02
2018-02-07T12:20:25.733Z,13.15
2018-02-07T12:21:31.099Z,13.00
2018-02-07T12:22:35.301Z,11.85
2018-02-07T12:23:39.512Z,12.02
2018-02-07T12:24:43.700Z,11.40
2018-02-07T12:25:49.329Z,12.23
2018-02-07T12:26:54.715Z,11.40
2018-02-07T12:27:58.886Z,11.73
2018-02-07T12:29:03.920Z,11.93
2018-02-07T12:30:08.983Z,12.40
2018-02-07T12:31:13.176Z,13.23
2018-02-07T12:32:17.983Z,11.65
2018-02-07T12:33:22.327Z,11.73
2018-02-07T12:34:26.588Z,11.95
2018-02-07T12:35:30.820Z,11.80
2018-02-07T12:36:35.794Z,12.32
2018-02-07T12:37:40.045Z,13.15
2018-02-07T12:38:44.296Z,13.00
2018-02-07T12:39:48.678Z,12.82
2018-02-07T12:40:52.992Z,12.40
2018-02-07T12:41:58.014Z,13.10
2018-02-07T12:43:02.194Z,11.30
2018-02-07T12:44:06.369Z,12.50
2018-02-07T12:45:10.604Z,11.25
2018-02-07T12:46:14.918Z,12.43
2018-02-07T12:47:19.182Z,11.60
2018-02-07T12:48:24.249Z,12.52
2018-02-07T12:49:28.504Z,11.23
2018-02-07T12:50:32.727Z,12.10
2018-02-07T12:51:36.906Z,11.55
2018-02-07T12:52:41.162Z,13.75
2018-02-07T12:53:46.317Z,11.55
2018-02-07T12:54:51.120Z,11.82
2018-02-07T12:55:56.103Z,12.37
2018-02-07T12:57:00.312Z,11.27
2018-02-07T12:58:04.923Z,11.52
2018-02-07T12:59:09.133Z,12.50
2018-02-07T13:00:13.340Z,11.93
2018-02-07T13:01:17.814Z,10.85
2018-02-07T13:02:22.157Z,11.20
2018-02-07T13:03:27.112Z,12.20
2018-02-07T13:04:31.313Z,11.98
2018-02-07T13:05:35.502Z,11.05
2018-02-07T13:06:39.716Z,11.90
2018-02-07T13:07:43.933Z,11.77
2018-02-07T13:08:49.268Z,13.20
2018-02-07T13:09:53.648Z,11.73
2018-02-07T13:10:58.624Z,11.77
2018-02-07T13:12:02.822Z,12.02
2018-02-07T13:13:07.132Z,10.77
2018-02-07T13:14:11.348Z,12.18
2018-02-07T13:15:15.727Z,10.77
2018-02-07T13:16:20.047Z,12.07
2018-02-07T13:17:24.587Z,9.75
2018-02-07T13:18:28.779Z,12.77
2018-02-07T13:19:33.746Z,11.77
2018-02-07T13:20:38.368Z,11.00
2018-02-07T13:21:42.572Z,11.50
2018-02-07T13:22:46.844Z,12.45
2018-02-07T13:23:51.592Z,11.90
2018-02-07T13:24:55.903Z,12.15
2018-02-07T13:26:00.133Z,9.98
2018-02-07T13:27:04.307Z,10.15
2018-02-07T13:28:09.255Z,11.20
2018-02-07T13:29:13.567Z,11.37
2018-02-07T13:30:17.860Z,10.30
2018-02-07T13:31:23.452Z,11.00
2018-02-07T13:32:27.667Z,11.90
2018-02-07T13:33:31.890Z,11.10
2018-02-07T13:34:36.086Z,11.20
2018-02-07T13:35:40.287Z,11.77
2018-02-07T13:36:45.781Z,11.48
2018-02-07T13:37:50.260Z,11.48
2018-02-07T13:38:54.479Z,10.73
2018-02-07T13:39:59.508Z,10.65
2018-02-07T13:41:03.698Z,12.50
2018-02-07T13:42:08.248Z,11.10
2018-02-07T13:43:12.432Z,10.43
2018-02-07T13:44:17.639Z,10.18
2018-02-07T13:45:21.874Z,10.48
2018-02-07T13:46:26.150Z,10.75
2018-02-07T13:47:30.393Z,10.60
2018-02-07T13:48:34.600Z,10.65
2018-02-07T13:49:38.863Z,11.00
2018-02-07T13:50:43.836Z,10.45
2018-02-07T13:51:49.048Z,13.07